Time;durP1;ratioP1;P1;durP2;ratioP2;P2;SDS_P1;SDS_P2;PMS_P1;PMS_P2;Temp;Humidity;BMP_temperature;BMP_pressure;BME280_temperature;BME280_humidity;BME280_pressure;Samples;Min_cycle;Max_cycle;Signal;HPM_P1;HPM_P2
2022/11/07 00:01:10;;;;;;;8.32;5.00;;;;;;;;;;5121181;27;20036;-81
2022/11/07 00:03:36;;;;;;;13.30;5.00;;;;;;;;;;5121537;27;20039;-82
2022/11/07 00:06:02;;;;;;;8.73;4.80;;;;;;;;;;5103083;27;20502;-82
2022/11/07 00:08:30;;;;;;;7.63;4.53;;;;;;;;;;5103273;27;20043;-82
2022/11/07 00:11:00;;;;;;;10.15;4.68;;;;;;;;;;5108604;27;20047;-81
2022/11/07 00:13:30;;;;;;;12.82;4.35;;;;;;;;;;5122117;27;20147;-81
2022/11/07 00:15:59;;;;;;;16.38;4.57;;;;;;;;;;5129911;27;20081;-81
2022/11/07 00:18:29;;;;;;;13.20;4.60;;;;;;;;;;5106203;27;20077;-81
2022/11/07 00:20:55;;;;;;;15.25;3.90;;;;;;;;;;5106181;27;20039;-81
2022/11/07 00:23:21;;;;;;;11.40;3.40;;;;;;;;;;5118062;27;20723;-81
2022/11/07 00:25:47;;;;;;;12.77;4.15;;;;;;;;;;5098816;27;20126;-81
2022/11/07 00:28:13;;;;;;;14.93;3.75;;;;;;;;;;5103070;28;20077;-81
2022/11/07 00:30:39;;;;;;;15.50;3.85;;;;;;;;;;5104149;27;20076;-81
2022/11/07 00:33:05;;;;;;;13.57;3.83;;;;;;;;;;5125998;27;20090;-81
2022/11/07 00:35:31;;;;;;;13.88;3.53;;;;;;;;;;5123132;27;20050;-81
2022/11/07 00:37:57;;;;;;;9.23;3.30;;;;;;;;;;5106462;28;20047;-82
2022/11/07 00:40:23;;;;;;;11.15;3.95;;;;;;;;;;5100090;28;20039;-82
2022/11/07 00:42:52;;;;;;;13.65;4.22;;;;;;;;;;5102711;28;20039;-81
2022/11/07 00:45:18;;;;;;;9.95;3.10;;;;;;;;;;5118252;27;20051;-82
2022/11/07 00:47:44;;;;;;;10.85;3.25;;;;;;;;;;5126204;27;20558;-81
2022/11/07 00:50:10;;;;;;;11.02;4.05;;;;;;;;;;5106320;27;20047;-81
2022/11/07 00:52:36;;;;;;;13.30;4.45;;;;;;;;;;5104033;28;20092;-81
2022/11/07 00:55:02;;;;;;;12.90;4.60;;;;;;;;;;5119418;27;20103;-82
2022/11/07 00:57:28;;;;;;;13.35;4.30;;;;;;;;;;5104434;28;20553;-81
2022/11/07 00:59:54;;;;;;;9.65;4.60;;;;;;;;;;5104427;27;20043;-82
2022/11/07 01:02:20;;;;;;;11.27;5.18;;;;;;;;;;5100211;27;20078;-82
2022/11/07 01:07:32;;;;;;;16.35;5.78;;;;;;;;;;5109265;28;20051;-81
2022/11/07 01:09:58;;;;;;;12.27;4.90;;;;;;;;;;5113270;27;20039;-81
2022/11/07 01:12:24;;;;;;;11.60;4.80;;;;;;;;;;5114543;28;20035;-81
2022/11/07 01:14:50;;;;;;;10.32;5.78;;;;;;;;;;5110603;27;20404;-82
2022/11/07 01:17:16;;;;;;;17.00;5.60;;;;;;;;;;5129206;27;20172;-81
2022/11/07 01:19:42;;;;;;;10.93;4.95;;;;;;;;;;5125118;27;20044;-81
2022/11/07 01:22:08;;;;;;;12.57;4.63;;;;;;;;;;5122572;27;20474;-81
2022/11/07 01:24:34;;;;;;;15.25;4.63;;;;;;;;;;5109881;27;20046;-81
2022/11/07 01:27:00;;;;;;;13.95;4.70;;;;;;;;;;5121813;27;20086;-81
2022/11/07 01:29:26;;;;;;;12.57;4.78;;;;;;;;;;5117019;27;20137;-82
2022/11/07 01:31:52;;;;;;;15.95;4.80;;;;;;;;;;5130711;27;20260;-81
2022/11/07 01:34:18;;;;;;;11.73;4.72;;;;;;;;;;5108922;28;20066;-81
2022/11/07 01:36:45;;;;;;;12.50;5.75;;;;;;;;;;5123988;27;20051;-81
2022/11/07 01:39:11;;;;;;;16.52;5.03;;;;;;;;;;5110173;27;20043;-81
2022/11/07 01:41:37;;;;;;;14.32;4.93;;;;;;;;;;5123472;27;20051;-81
2022/11/07 01:44:24;;;;;;;14.43;5.03;;;;;;;;;;5127998;27;20035;-80
2022/11/07 01:46:52;;;;;;;12.50;4.70;;;;;;;;;;5109694;27;20051;-81
2022/11/07 01:49:24;;;;;;;15.18;4.93;;;;;;;;;;5100395;27;20067;-81
2022/11/07 01:51:54;;;;;;;12.40;4.90;;;;;;;;;;5103978;27;20063;-81
2022/11/07 01:54:23;;;;;;;14.02;5.15;;;;;;;;;;5111021;27;20039;-81
2022/11/07 01:56:50;;;;;;;14.45;4.90;;;;;;;;;;5128967;27;20114;-81
2022/11/07 01:59:19;;;;;;;14.10;4.78;;;;;;;;;;5104471;27;20035;-82
2022/11/07 02:01:45;;;;;;;13.35;5.10;;;;;;;;;;5115818;27;20039;-81
2022/11/07 02:04:11;;;;;;;13.27;4.63;;;;;;;;;;5109069;27;20047;-81
2022/11/07 02:06:43;;;;;;;12.00;4.78;;;;;;;;;;5132230;27;20082;-81
2022/11/07 02:09:09;;;;;;;18.45;4.75;;;;;;;;;;5109829;27;20191;-81
2022/11/07 02:11:35;;;;;;;14.23;4.40;;;;;;;;;;5110225;27;20089;-81
2022/11/07 02:14:01;;;;;;;12.70;4.15;;;;;;;;;;5106016;27;20047;-81
2022/11/07 02:16:28;;;;;;;15.93;4.57;;;;;;;;;;5104439;27;20406;-81
2022/11/07 02:18:54;;;;;;;11.05;4.40;;;;;;;;;;5106583;27;20039;-81
2022/11/07 02:21:31;;;;;;;21.10;4.30;;;;;;;;;;5124368;27;20049;-82
2022/11/07 02:23:59;;;;;;;15.82;4.25;;;;;;;;;;5145011;27;20054;-81
2022/11/07 02:26:26;;;;;;;14.00;4.03;;;;;;;;;;5106766;27;20039;-82
2022/11/07 02:28:53;;;;;;;16.25;4.43;;;;;;;;;;5126824;27;20126;-81
2022/11/07 02:31:19;;;;;;;21.40;4.47;;;;;;;;;;5116893;27;20510;-80
2022/11/07 02:33:45;;;;;;;23.25;5.05;;;;;;;;;;5097625;27;20055;-80
2022/11/07 02:36:14;;;;;;;15.73;3.85;;;;;;;;;;5111078;27;20055;-81
2022/11/07 02:38:40;;;;;;;13.10;3.95;;;;;;;;;;5125380;27;20047;-81
2022/11/07 02:41:09;;;;;;;24.10;5.07;;;;;;;;;;5123371;27;20039;-80
2022/11/07 02:43:37;;;;;;;16.13;4.05;;;;;;;;;;5143394;27;20175;-81
2022/11/07 02:46:05;;;;;;;21.27;4.00;;;;;;;;;;5116102;27;20050;-81
2022/11/07 02:48:32;;;;;;;22.73;4.68;;;;;;;;;;5123763;27;20039;-81
2022/11/07 02:50:58;;;;;;;23.20;4.75;;;;;;;;;;5145946;27;20039;-81
2022/11/07 02:53:24;;;;;;;20.73;4.22;;;;;;;;;;5103372;27;20039;-81
2022/11/07 02:55:50;;;;;;;15.93;4.20;;;;;;;;;;5121929;27;20406;-82
2022/11/07 02:58:16;;;;;;;11.60;2.92;;;;;;;;;;5109718;27;20039;-82
2022/11/07 03:00:42;;;;;;;16.38;3.80;;;;;;;;;;5112193;27;20059;-83
2022/11/07 03:03:08;;;;;;;12.43;3.35;;;;;;;;;;5110720;27;20039;-82
2022/11/07 03:05:34;;;;;;;17.80;3.50;;;;;;;;;;5109315;27;20532;-82
2022/11/07 03:08:00;;;;;;;11.98;3.15;;;;;;;;;;5112179;27;20504;-80
2022/11/07 03:10:26;;;;;;;16.85;4.22;;;;;;;;;;5101505;27;20051;-81
2022/11/07 03:12:52;;;;;;;16.92;3.80;;;;;;;;;;5112476;27;20095;-81
2022/11/07 03:15:18;;;;;;;15.32;3.63;;;;;;;;;;5124164;27;20046;-81
2022/11/07 03:17:44;;;;;;;15.10;3.67;;;;;;;;;;5114433;27;20047;-81
2022/11/07 03:20:11;;;;;;;11.70;3.50;;;;;;;;;;5104806;27;20043;-81
2022/11/07 03:22:38;;;;;;;13.80;3.70;;;;;;;;;;5108473;27;20435;-81
2022/11/07 03:25:05;;;;;;;10.15;3.92;;;;;;;;;;5105336;27;20039;-81
2022/11/07 03:27:31;;;;;;;7.78;3.63;;;;;;;;;;5105392;27;20056;-82
2022/11/07 03:29:57;;;;;;;10.23;4.07;;;;;;;;;;5121339;27;20043;-81
2022/11/07 03:32:23;;;;;;;9.25;3.53;;;;;;;;;;5111417;27;20054;-81
2022/11/07 03:34:50;;;;;;;15.80;4.15;;;;;;;;;;5105760;27;20479;-81
2022/11/07 03:37:16;;;;;;;12.13;3.80;;;;;;;;;;5124023;27;20118;-81
2022/11/07 03:39:42;;;;;;;15.65;3.80;;;;;;;;;;5105484;27;20104;-81
2022/11/07 03:42:08;;;;;;;15.40;4.50;;;;;;;;;;5098982;27;20048;-82
2022/11/07 03:44:34;;;;;;;18.40;4.30;;;;;;;;;;5106574;27;20121;-81
2022/11/07 03:47:00;;;;;;;19.50;4.50;;;;;;;;;;5105604;27;20440;-81
2022/11/07 03:49:26;;;;;;;13.95;4.18;;;;;;;;;;5138033;27;20054;-82
2022/11/07 03:51:52;;;;;;;13.70;3.83;;;;;;;;;;5103655;27;20051;-82
2022/11/07 03:54:18;;;;;;;8.60;3.40;;;;;;;;;;5106823;27;20475;-81
2022/11/07 03:56:44;;;;;;;8.02;3.75;;;;;;;;;;5125223;27;20078;-81
2022/11/07 03:59:10;;;;;;;12.95;4.80;;;;;;;;;;5106961;27;20192;-81
2022/11/07 04:01:36;;;;;;;13.02;4.20;;;;;;;;;;5125323;27;20038;-81
2022/11/07 04:04:02;;;;;;;18.10;5.07;;;;;;;;;;5141465;27;20055;-81
2022/11/07 04:06:28;;;;;;;13.65;4.80;;;;;;;;;;5096814;27;20558;-81
2022/11/07 04:08:54;;;;;;;15.50;4.53;;;;;;;;;;5106212;27;20032;-81
2022/11/07 04:19:34;;;;;;;12.02;4.32;;;;;;;;;;5123164;27;20039;-83
2022/11/07 04:22:00;;;;;;;12.50;4.35;;;;;;;;;;5102651;27;20049;-82
2022/11/07 04:24:26;;;;;;;17.63;4.75;;;;;;;;;;5108641;27;20528;-81
2022/11/07 04:29:36;;;;;;;17.85;4.70;;;;;;;;;;5106968;27;20341;-81
2022/11/07 04:32:02;;;;;;;14.65;4.15;;;;;;;;;;5058060;27;20902;-82
2022/11/07 04:34:28;;;;;;;10.90;4.03;;;;;;;;;;5071156;28;20039;-81
2022/11/07 04:36:54;;;;;;;13.88;4.88;;;;;;;;;;5103491;28;20092;-81
2022/11/07 04:39:20;;;;;;;19.35;5.43;;;;;;;;;;5111726;27;20436;-82
2022/11/07 04:41:46;;;;;;;11.48;5.05;;;;;;;;;;5117377;27;20051;-82
2022/11/07 04:44:12;;;;;;;12.82;5.60;;;;;;;;;;5111485;28;20047;-82
2022/11/07 04:46:38;;;;;;;12.45;5.15;;;;;;;;;;5109565;27;20046;-81
2022/11/07 04:49:04;;;;;;;10.90;5.55;;;;;;;;;;5124021;27;20043;-81
2022/11/07 04:51:31;;;;;;;15.43;5.15;;;;;;;;;;5115844;27;20040;-81
2022/11/07 04:53:57;;;;;;;13.82;5.40;;;;;;;;;;5118403;27;20414;-81
2022/11/07 04:56:23;;;;;;;13.43;5.20;;;;;;;;;;5126955;27;20036;-82
2022/11/07 04:58:49;;;;;;;12.20;5.20;;;;;;;;;;5102640;27;20066;-81
2022/11/07 05:01:15;;;;;;;9.65;4.97;;;;;;;;;;5121150;27;20043;-82
2022/11/07 05:03:40;;;;;;;11.60;5.13;;;;;;;;;;5143936;27;20452;-83
2022/11/07 05:06:07;;;;;;;12.52;5.32;;;;;;;;;;5120774;27;20088;-82
2022/11/07 05:08:33;;;;;;;11.07;4.30;;;;;;;;;;5108542;27;20079;-82
2022/11/07 05:10:59;;;;;;;10.88;3.42;;;;;;;;;;5114404;28;20123;-82
2022/11/07 05:13:25;;;;;;;10.48;3.92;;;;;;;;;;5098638;27;20129;-82
2022/11/07 05:15:51;;;;;;;15.30;3.50;;;;;;;;;;5113068;27;20043;-81
2022/11/07 05:18:19;;;;;;;12.13;4.05;;;;;;;;;;5110241;27;20047;-82
2022/11/07 05:20:45;;;;;;;11.40;4.72;;;;;;;;;;5126913;27;20053;-81
2022/11/07 05:23:12;;;;;;;11.07;4.88;;;;;;;;;;5110930;27;20122;-80
2022/11/07 05:25:42;;;;;;;13.23;5.18;;;;;;;;;;5122285;27;20806;-81
2022/11/07 05:28:08;;;;;;;13.90;4.50;;;;;;;;;;5122877;27;20104;-82
2022/11/07 05:30:37;;;;;;;11.68;4.10;;;;;;;;;;5108626;27;20062;-81
2022/11/07 05:33:03;;;;;;;12.52;4.15;;;;;;;;;;5106080;27;20043;-82
2022/11/07 05:35:29;;;;;;;15.30;3.90;;;;;;;;;;5114542;27;20535;-82
2022/11/07 05:37:55;;;;;;;11.00;3.83;;;;;;;;;;5121788;27;20475;-82
2022/11/07 05:40:21;;;;;;;11.77;3.30;;;;;;;;;;5128384;27;20035;-82
2022/11/07 05:42:47;;;;;;;9.27;3.47;;;;;;;;;;5110156;27;20051;-83
2022/11/07 05:45:14;;;;;;;13.07;3.00;;;;;;;;;;5130933;27;20046;-81
2022/11/07 05:47:40;;;;;;;12.57;3.22;;;;;;;;;;5129571;27;20478;-81
2022/11/07 05:50:06;;;;;;;8.93;3.35;;;;;;;;;;5109511;27;20073;-82
2022/11/07 05:52:35;;;;;;;11.27;3.53;;;;;;;;;;5101599;27;20543;-81
2022/11/07 05:55:01;;;;;;;7.65;3.50;;;;;;;;;;5129696;27;20035;-81
2022/11/07 05:57:28;;;;;;;9.73;3.78;;;;;;;;;;5104767;28;20052;-81
2022/11/07 05:59:54;;;;;;;11.73;4.22;;;;;;;;;;5098934;27;20375;-81
2022/11/07 06:02:20;;;;;;;11.50;4.45;;;;;;;;;;5122471;27;20043;-81
2022/11/07 06:04:46;;;;;;;10.75;4.65;;;;;;;;;;5123214;27;20039;-81
2022/11/07 06:07:12;;;;;;;13.77;4.25;;;;;;;;;;5123987;27;20039;-82
2022/11/07 06:09:38;;;;;;;9.38;3.67;;;;;;;;;;5106759;27;20118;-81
2022/11/07 06:12:04;;;;;;;14.13;6.93;;;;;;;;;;5099739;27;20074;-81
2022/11/07 06:14:30;;;;;;;11.43;5.65;;;;;;;;;;5104085;27;20065;-81
2022/11/07 06:16:56;;;;;;;8.48;3.65;;;;;;;;;;5112072;27;20514;-80
2022/11/07 06:19:22;;;;;;;5.80;3.42;;;;;;;;;;5100021;27;20178;-81
2022/11/07 06:21:48;;;;;;;9.32;3.90;;;;;;;;;;5125437;27;20035;-82
2022/11/07 06:24:14;;;;;;;9.23;3.88;;;;;;;;;;5107741;27;20094;-81
2022/11/07 06:26:43;;;;;;;12.57;4.75;;;;;;;;;;5110956;27;20384;-80
2022/11/07 06:29:09;;;;;;;9.90;4.50;;;;;;;;;;5122275;27;20122;-81
2022/11/07 06:31:35;;;;;;;10.50;4.40;;;;;;;;;;5124359;27;20500;-84
2022/11/07 06:34:01;;;;;;;11.45;5.38;;;;;;;;;;5125069;27;20092;-82
2022/11/07 06:36:27;;;;;;;10.13;4.88;;;;;;;;;;5113577;27;20051;-82
2022/11/07 06:38:53;;;;;;;11.98;4.72;;;;;;;;;;5105809;27;20061;-82
2022/11/07 06:41:20;;;;;;;8.63;4.78;;;;;;;;;;5106390;27;20043;-81
2022/11/07 06:43:46;;;;;;;10.88;4.80;;;;;;;;;;5105453;27;20754;-80
2022/11/07 06:46:13;;;;;;;9.30;3.85;;;;;;;;;;5100656;27;20103;-82
2022/11/07 06:48:42;;;;;;;9.63;3.20;;;;;;;;;;5108425;27;20130;-82
2022/11/07 06:51:09;;;;;;;10.48;3.50;;;;;;;;;;5130484;27;20123;-81
2022/11/07 06:53:35;;;;;;;9.23;2.75;;;;;;;;;;5125456;27;20490;-82
2022/11/07 06:56:03;;;;;;;5.43;2.17;;;;;;;;;;5112837;27;20091;-83
2022/11/07 06:58:29;;;;;;;4.20;2.20;;;;;;;;;;5124842;27;20392;-81
2022/11/07 07:00:59;;;;;;;3.97;2.20;;;;;;;;;;5111723;27;20176;-82
2022/11/07 07:03:25;;;;;;;5.80;2.50;;;;;;;;;;5121545;27;20051;-82
2022/11/07 07:05:51;;;;;;;4.85;2.75;;;;;;;;;;5129360;27;20058;-82
2022/11/07 07:08:18;;;;;;;9.25;4.03;;;;;;;;;;5113839;27;20091;-82
2022/11/07 07:10:44;;;;;;;7.97;4.05;;;;;;;;;;5133716;27;20082;-81
2022/11/07 07:13:11;;;;;;;11.57;4.45;;;;;;;;;;5106066;27;20535;-82
2022/11/07 07:15:37;;;;;;;10.52;4.80;;;;;;;;;;5108187;27;20057;-82
2022/11/07 07:18:03;;;;;;;10.50;4.70;;;;;;;;;;5112398;27;20039;-82
2022/11/07 07:20:30;;;;;;;7.43;3.50;;;;;;;;;;5131192;27;20171;-82
2022/11/07 07:22:56;;;;;;;7.10;4.03;;;;;;;;;;5114158;27;20082;-81
2022/11/07 07:25:22;;;;;;;9.77;3.67;;;;;;;;;;5129790;27;20120;-82
2022/11/07 07:27:48;;;;;;;6.28;3.38;;;;;;;;;;5112988;27;20435;-82
2022/11/07 07:30:14;;;;;;;6.60;2.70;;;;;;;;;;5111764;27;20043;-82
2022/11/07 07:32:40;;;;;;;5.65;2.72;;;;;;;;;;5111466;27;20051;-82
2022/11/07 07:35:06;;;;;;;7.70;3.10;;;;;;;;;;5109778;27;20170;-81
2022/11/07 07:37:33;;;;;;;4.18;2.90;;;;;;;;;;5112782;27;20051;-82
2022/11/07 07:39:59;;;;;;;9.60;3.30;;;;;;;;;;5125191;27;20035;-81
2022/11/07 07:42:25;;;;;;;7.13;3.15;;;;;;;;;;5113435;27;20043;-81
2022/11/07 07:44:51;;;;;;;8.13;3.17;;;;;;;;;;5112340;27;20047;-82
2022/11/07 07:47:17;;;;;;;8.15;3.60;;;;;;;;;;5127280;27;20092;-82
2022/11/07 07:49:43;;;;;;;6.78;3.22;;;;;;;;;;5127080;27;20043;-81
2022/11/07 07:52:09;;;;;;;6.50;2.85;;;;;;;;;;5106276;28;20100;-81
2022/11/07 07:54:36;;;;;;;7.30;3.13;;;;;;;;;;5103210;27;20050;-81
2022/11/07 07:57:02;;;;;;;8.70;3.88;;;;;;;;;;5106038;27;20071;-82
2022/11/07 07:59:28;;;;;;;10.88;5.65;;;;;;;;;;5101976;27;20065;-81
2022/11/07 08:01:54;;;;;;;14.52;5.45;;;;;;;;;;5110850;27;20047;-81
2022/11/07 08:04:20;;;;;;;15.95;5.40;;;;;;;;;;5125126;27;20130;-82
2022/11/07 08:06:46;;;;;;;15.05;6.30;;;;;;;;;;5107265;27;20134;-82
2022/11/07 08:09:12;;;;;;;16.75;6.00;;;;;;;;;;5120898;27;20135;-82
2022/11/07 08:11:38;;;;;;;18.33;6.57;;;;;;;;;;5119020;27;20535;-82
2022/11/07 08:14:04;;;;;;;19.98;5.97;;;;;;;;;;5103290;27;20046;-82
2022/11/07 08:16:30;;;;;;;17.77;5.75;;;;;;;;;;5110180;27;20427;-82
2022/11/07 08:18:56;;;;;;;18.10;5.88;;;;;;;;;;5105918;27;20039;-81
2022/11/07 08:21:22;;;;;;;19.05;5.38;;;;;;;;;;5113845;27;20039;-81
2022/11/07 08:23:52;;;;;;;12.57;4.97;;;;;;;;;;5106988;27;20494;-81
2022/11/07 08:26:18;;;;;;;12.52;4.63;;;;;;;;;;5098509;28;20047;-81
2022/11/07 08:28:44;;;;;;;10.60;4.40;;;;;;;;;;5110880;27;20498;-82
2022/11/07 08:31:11;;;;;;;11.20;4.35;;;;;;;;;;5122254;27;20042;-82
2022/11/07 08:33:37;;;;;;;11.60;4.47;;;;;;;;;;5122148;27;20573;-82
2022/11/07 08:36:05;;;;;;;12.25;4.10;;;;;;;;;;5125125;28;20077;-81
2022/11/07 08:38:31;;;;;;;16.42;4.53;;;;;;;;;;5128951;28;20375;-81
2022/11/07 08:40:58;;;;;;;9.20;4.65;;;;;;;;;;5126481;27;20043;-81
2022/11/07 08:43:25;;;;;;;11.48;4.70;;;;;;;;;;5109216;28;20047;-81
2022/11/07 08:45:52;;;;;;;15.60;5.43;;;;;;;;;;5105657;28;20989;-81
2022/11/07 08:48:18;;;;;;;13.38;4.85;;;;;;;;;;5111491;27;20031;-81
2022/11/07 08:50:44;;;;;;;15.70;6.30;;;;;;;;;;5113164;27;20105;-81
2022/11/07 08:53:11;;;;;;;15.60;5.80;;;;;;;;;;5113097;27;20058;-81
2022/11/07 08:55:37;;;;;;;15.90;6.47;;;;;;;;;;5106303;27;20510;-81
2022/11/07 08:58:04;;;;;;;12.57;5.35;;;;;;;;;;5101836;28;20394;-81
2022/11/07 09:00:30;;;;;;;19.42;6.53;;;;;;;;;;5131322;27;20112;-81
2022/11/07 09:02:56;;;;;;;17.98;6.45;;;;;;;;;;5115794;27;20047;-81
2022/11/07 09:05:22;;;;;;;14.00;5.97;;;;;;;;;;5113267;27;20072;-82
2022/11/07 09:07:48;;;;;;;15.13;6.10;;;;;;;;;;5113110;27;20136;-82
2022/11/07 09:10:14;;;;;;;12.50;5.90;;;;;;;;;;5109397;27;20193;-82
2022/11/07 09:12:44;;;;;;;13.45;5.95;;;;;;;;;;5116874;27;20082;-82
2022/11/07 09:15:10;;;;;;;11.55;5.78;;;;;;;;;;5127728;27;20168;-82
2022/11/07 09:17:42;;;;;;;15.52;6.10;;;;;;;;;;5131733;27;20039;-82
2022/11/07 09:20:09;;;;;;;14.40;5.75;;;;;;;;;;5110593;27;20179;-81
2022/11/07 09:22:35;;;;;;;16.40;6.35;;;;;;;;;;5101697;27;20075;-81
2022/11/07 09:25:01;;;;;;;14.43;6.35;;;;;;;;;;5130196;27;20054;-80
2022/11/07 09:27:27;;;;;;;16.55;6.00;;;;;;;;;;5105158;27;20044;-82
2022/11/07 09:29:53;;;;;;;14.30;6.15;;;;;;;;;;5107476;27;20049;-83
2022/11/07 09:32:19;;;;;;;16.02;5.85;;;;;;;;;;5110956;27;20051;-82
2022/11/07 09:34:45;;;;;;;15.18;5.78;;;;;;;;;;5123946;27;20043;-81
2022/11/07 09:37:11;;;;;;;14.52;5.53;;;;;;;;;;5129759;27;20610;-82
2022/11/07 09:39:37;;;;;;;12.38;4.97;;;;;;;;;;5109394;27;20126;-82
2022/11/07 09:42:16;;;;;;;12.15;4.55;;;;;;;;;;5126277;27;20071;-82
2022/11/07 09:44:53;;;;;;;12.10;4.90;;;;;;;;;;5124368;27;20050;-82
2022/11/07 09:47:32;;;;;;;13.60;5.57;;;;;;;;;;5134306;27;20398;-82
2022/11/07 09:50:00;;;;;;;11.10;4.30;;;;;;;;;;5121731;27;20111;-81
2022/11/07 09:52:39;;;;;;;16.10;4.57;;;;;;;;;;5126784;27;20046;-82
2022/11/07 09:55:24;;;;;;;14.02;5.22;;;;;;;;;;5111066;27;20872;-82
2022/11/07 09:57:52;;;;;;;10.38;4.43;;;;;;;;;;5106691;27;20502;-82
2022/11/07 10:00:18;;;;;;;13.95;5.28;;;;;;;;;;5123613;27;20046;-81
2022/11/07 10:02:46;;;;;;;12.60;4.72;;;;;;;;;;5150932;27;20051;-79
2022/11/07 10:05:14;;;;;;;11.82;5.20;;;;;;;;;;5110352;27;20493;-80
2022/11/07 10:07:43;;;;;;;10.38;4.40;;;;;;;;;;5142341;27;20047;-80
2022/11/07 10:10:21;;;;;;;12.50;5.28;;;;;;;;;;5111130;27;20050;-80
2022/11/07 10:12:47;;;;;;;13.77;5.78;;;;;;;;;;5115438;27;20099;-80
2022/11/07 10:15:24;;;;;;;13.93;5.15;;;;;;;;;;5111243;27;20043;-80
2022/11/07 10:18:09;;;;;;;13.57;4.93;;;;;;;;;;5100706;28;20054;-80
2022/11/07 10:20:41;;;;;;;10.38;4.75;;;;;;;;;;5109233;27;20050;-79
2022/11/07 10:23:07;;;;;;;12.05;5.32;;;;;;;;;;5125870;27;20099;-80
2022/11/07 10:25:37;;;;;;;14.77;5.15;;;;;;;;;;5127140;27;20511;-80
2022/11/07 10:28:06;;;;;;;15.30;5.80;;;;;;;;;;5104456;28;20439;-79
2022/11/07 10:30:32;;;;;;;9.82;4.88;;;;;;;;;;5124661;27;20427;-80
2022/11/07 10:33:02;;;;;;;10.90;5.00;;;;;;;;;;5113688;27;20055;-80
2022/11/07 10:35:30;;;;;;;15.52;5.22;;;;;;;;;;5112168;27;20443;-79
2022/11/07 10:37:58;;;;;;;13.82;4.93;;;;;;;;;;5104357;27;20055;-80
2022/11/07 10:40:27;;;;;;;10.38;4.78;;;;;;;;;;5112339;27;20058;-80
2022/11/07 10:42:54;;;;;;;11.82;5.13;;;;;;;;;;5102969;27;20160;-81
2022/11/07 10:45:20;;;;;;;9.45;4.57;;;;;;;;;;5127652;27;20347;-80
2022/11/07 10:48:01;;;;;;;12.88;5.22;;;;;;;;;;5125030;27;20036;-80
2022/11/07 10:50:27;;;;;;;13.98;5.70;;;;;;;;;;5108861;27;20055;-79
2022/11/07 10:52:58;;;;;;;10.90;4.85;;;;;;;;;;5129794;27;20074;-79
2022/11/07 10:55:24;;;;;;;12.60;5.18;;;;;;;;;;5105890;27;20087;-80
2022/11/07 10:57:52;;;;;;;13.98;5.22;;;;;;;;;;5113369;27;20047;-80
2022/11/07 11:00:26;;;;;;;13.30;5.03;;;;;;;;;;5110801;27;20436;-80
2022/11/07 11:02:53;;;;;;;12.00;5.20;;;;;;;;;;5118103;27;20046;-79
2022/11/07 11:05:24;;;;;;;14.38;5.72;;;;;;;;;;5100843;27;20039;-80
2022/11/07 11:07:50;;;;;;;13.57;4.57;;;;;;;;;;5108377;27;20367;-79
2022/11/07 11:10:27;;;;;;;16.33;5.18;;;;;;;;;;5111944;27;20039;-80
2022/11/07 11:12:53;;;;;;;18.27;5.22;;;;;;;;;;5107360;27;20432;-80
2022/11/07 11:15:21;;;;;;;14.68;5.07;;;;;;;;;;5111499;27;20035;-79
2022/11/07 11:17:56;;;;;;;18.63;5.07;;;;;;;;;;5136142;27;20141;-81
2022/11/07 11:20:31;;;;;;;15.05;5.57;;;;;;;;;;5108798;27;20035;-80
2022/11/07 11:22:58;;;;;;;14.07;5.25;;;;;;;;;;5121414;27;20054;-80
2022/11/07 11:25:25;;;;;;;13.68;5.35;;;;;;;;;;5129009;27;20043;-80
2022/11/07 11:27:54;;;;;;;11.15;5.55;;;;;;;;;;5131591;27;20043;-80
2022/11/07 11:30:21;;;;;;;11.98;5.90;;;;;;;;;;5125076;27;21295;-80
2022/11/07 11:32:59;;;;;;;18.35;6.35;;;;;;;;;;5102781;27;20051;-81
2022/11/07 11:35:44;;;;;;;15.07;5.78;;;;;;;;;;5105276;27;20044;-80
2022/11/07 11:38:19;;;;;;;19.67;5.78;;;;;;;;;;5098597;27;20130;-80
2022/11/07 11:40:50;;;;;;;16.02;5.70;;;;;;;;;;5118361;27;20055;-79
2022/11/07 11:43:19;;;;;;;14.48;5.93;;;;;;;;;;5121362;27;20570;-80
2022/11/07 11:45:53;;;;;;;16.63;5.78;;;;;;;;;;5109452;27;20649;-80
2022/11/07 11:48:27;;;;;;;17.42;6.70;;;;;;;;;;5110952;27;20131;-80
2022/11/07 11:50:52;;;;;;;;;;;;;;;;;;5107243;27;21550;-80
2022/11/07 11:53:20;;;;;;;14.70;5.38;;;;;;;;;;5124940;27;19919;-80
2022/11/07 11:55:52;;;;;;;12.43;5.40;;;;;;;;;;5104103;27;20054;-79
2022/11/07 11:58:33;;;;;;;13.68;5.00;;;;;;;;;;5129550;27;20035;-80
2022/11/07 12:01:14;;;;;;;14.00;5.25;;;;;;;;;;5110251;27;20474;-80
2022/11/07 12:03:59;;;;;;;16.45;5.82;;;;;;;;;;5106874;27;20055;-80
2022/11/07 12:06:33;;;;;;;11.32;4.40;;;;;;;;;;5104904;27;20117;-80
2022/11/07 12:08:59;;;;;;;11.93;4.50;;;;;;;;;;5127216;27;20089;-80
2022/11/07 12:11:24;;;;;;;12.93;4.07;;;;;;;;;;5110934;27;20035;-80
2022/11/07 12:14:06;;;;;;;15.13;4.45;;;;;;;;;;5123598;27;20043;-80
2022/11/07 12:16:41;;;;;;;15.05;4.72;;;;;;;;;;5123548;27;20039;-79
2022/11/07 12:19:23;;;;;;;14.93;4.75;;;;;;;;;;5108739;27;20047;-79
2022/11/07 12:21:49;;;;;;;16.42;5.22;;;;;;;;;;5111750;27;20050;-79
2022/11/07 12:24:15;;;;;;;11.45;4.40;;;;;;;;;;5121982;27;20049;-80
2022/11/07 12:26:54;;;;;;;13.88;4.85;;;;;;;;;;5125158;27;20135;-79
2022/11/07 12:29:23;;;;;;;17.10;5.25;;;;;;;;;;5117205;27;20086;-80
2022/11/07 12:32:04;;;;;;;15.98;5.30;;;;;;;;;;5099388;27;20055;-80
2022/11/07 12:34:31;;;;;;;14.20;5.88;;;;;;;;;;5106845;28;20443;-79
2022/11/07 12:37:06;;;;;;;12.43;5.10;;;;;;;;;;5107677;28;20106;-79
2022/11/07 12:39:32;;;;;;;13.85;5.63;;;;;;;;;;5140137;27;20072;-80
2022/11/07 12:42:04;;;;;;;18.25;5.68;;;;;;;;;;5123005;27;20130;-80
2022/11/07 12:44:54;;;;;;;16.17;5.20;;;;;;;;;;5111477;28;20130;-80
2022/11/07 12:47:35;;;;;;;17.48;5.80;;;;;;;;;;5108188;27;20046;-80
2022/11/07 12:50:01;;;;;;;12.48;5.45;;;;;;;;;;5111814;28;20050;-80
2022/11/07 12:52:35;;;;;;;15.60;5.55;;;;;;;;;;5105313;28;20051;-79
2022/11/07 12:55:19;;;;;;;10.65;4.68;;;;;;;;;;5106339;28;20032;-80
2022/11/07 12:57:46;;;;;;;11.80;4.35;;;;;;;;;;5109651;27;20042;-80
2022/11/07 13:00:13;;;;;;;10.13;4.47;;;;;;;;;;5105098;28;20094;-80
2022/11/07 13:02:49;;;;;;;15.65;4.20;;;;;;;;;;5105337;28;20039;-80
2022/11/07 13:05:15;;;;;;;11.32;4.22;;;;;;;;;;5129144;27;20051;-79
2022/11/07 13:08:04;;;;;;;13.02;4.60;;;;;;;;;;5105499;28;20062;-79
2022/11/07 13:10:35;;;;;;;12.32;4.38;;;;;;;;;;5128005;27;20149;-80
2022/11/07 13:13:10;;;;;;;11.40;4.30;;;;;;;;;;5104351;28;20055;-80
2022/11/07 13:15:37;;;;;;;9.88;4.10;;;;;;;;;;5127450;27;20134;-80
2022/11/07 13:18:12;;;;;;;10.63;4.05;;;;;;;;;;5106172;27;20436;-79
2022/11/07 13:20:41;;;;;;;9.10;4.38;;;;;;;;;;5111096;28;20122;-80
2022/11/07 13:23:13;;;;;;;10.98;4.95;;;;;;;;;;5104235;27;20055;-79
2022/11/07 13:25:40;;;;;;;14.38;4.47;;;;;;;;;;5100149;27;20564;-80
2022/11/07 13:28:26;;;;;;;10.57;4.40;;;;;;;;;;5123854;28;20031;-79
2022/11/07 13:30:54;;;;;;;9.88;4.93;;;;;;;;;;5112215;28;20043;-80
2022/11/07 13:33:25;;;;;;;10.68;4.60;;;;;;;;;;5122245;27;20517;-80
2022/11/07 13:35:53;;;;;;;10.57;4.78;;;;;;;;;;5114267;27;20500;-80
2022/11/07 13:38:21;;;;;;;11.52;4.75;;;;;;;;;;5110923;27;20036;-80
2022/11/07 13:40:49;;;;;;;14.60;4.85;;;;;;;;;;5114099;27;20051;-79
2022/11/07 13:43:17;;;;;;;9.80;4.60;;;;;;;;;;5109499;27;20052;-79
2022/11/07 13:46:10;;;;;;;9.90;4.50;;;;;;;;;;5111684;27;20046;-79
2022/11/07 13:48:42;;;;;;;14.07;5.15;;;;;;;;;;5103136;27;20047;-79
2022/11/07 13:51:22;;;;;;;11.60;4.57;;;;;;;;;;5112481;27;20043;-79
2022/11/07 13:54:01;;;;;;;13.13;5.05;;;;;;;;;;5112417;27;20058;-79
2022/11/07 13:56:42;;;;;;;16.10;5.00;;;;;;;;;;5130773;27;20061;-79
2022/11/07 13:59:35;;;;;;;12.63;5.10;;;;;;;;;;5108051;27;20117;-79
2022/11/07 14:02:01;;;;;;;13.30;5.60;;;;;;;;;;5068855;27;20051;-79
2022/11/07 14:04:28;;;;;;;9.57;4.60;;;;;;;;;;5128724;27;20513;-78
2022/11/07 14:06:59;;;;;;;13.20;5.32;;;;;;;;;;5104509;27;20043;-80
2022/11/07 14:09:26;;;;;;;11.45;5.13;;;;;;;;;;5112721;27;20819;-81
2022/11/07 14:11:52;;;;;;;16.35;5.30;;;;;;;;;;5115834;27;20067;-79
2022/11/07 14:14:22;;;;;;;15.15;5.20;;;;;;;;;;5133200;27;20110;-80
2022/11/07 14:16:48;;;;;;;12.00;5.22;;;;;;;;;;5136363;27;20083;-79
2022/11/07 14:19:15;;;;;;;11.63;4.57;;;;;;;;;;5114216;27;20043;-78
2022/11/07 14:21:43;;;;;;;13.85;4.93;;;;;;;;;;5131634;27;20050;-78
2022/11/07 14:24:19;;;;;;;9.10;5.40;;;;;;;;;;5108731;27;20390;-78
2022/11/07 14:26:56;;;;;;;12.45;4.88;;;;;;;;;;5124268;27;20039;-80
2022/11/07 14:29:22;;;;;;;15.68;5.60;;;;;;;;;;5129845;27;20035;-80
2022/11/07 14:31:48;;;;;;;12.07;5.65;;;;;;;;;;5108691;27;20059;-80
2022/11/07 14:34:19;;;;;;;18.13;6.00;;;;;;;;;;5107942;27;20072;-79
2022/11/07 14:36:52;;;;;;;14.85;5.30;;;;;;;;;;5111363;27;20069;-79
2022/11/07 14:39:18;;;;;;;;;;;;;;;;;;5107370;27;20037;-80
2022/11/07 14:41:45;;;;;;;9.27;5.07;;;;;;;;;;5130311;27;20018;-80
2022/11/07 14:44:22;;;;;;;13.15;5.50;;;;;;;;;;5105528;27;20070;-79
2022/11/07 14:46:49;;;;;;;11.63;5.75;;;;;;;;;;5128444;27;20444;-79
2022/11/07 14:49:23;;;;;;;12.50;6.47;;;;;;;;;;5111066;27;20045;-80
2022/11/07 14:51:49;;;;;;;13.60;5.78;;;;;;;;;;5109218;27;20561;-79
2022/11/07 14:54:17;;;;;;;13.25;6.00;;;;;;;;;;5113633;27;20108;-79